sensor_id;sensor_type;location;lat;lon;timestamp;pressure;altitude;pressure_sealevel;temperature;humidity
69198;BME280;56311;50.298;8.514;2023-07-09T14:32:00;97920.0;;;36.6;22.6
69198;BME280;56311;50.298;8.514;2023-07-09T14:34:19;97910.0;;;36.7;22.6
69198;BME280;56311;50.298;8.514;2023-07-09T14:36:00;97910.0;;;36.7;22.4
69198;BME280;56311;50.298;8.514;2023-07-09T14:38:00;97910.0;;;36.5;22.2
69198;BME280;56311;50.298;8.514;2023-07-09T14:40:00;97910.0;;;36.5;21.9
69198;BME280;56311;50.298;8.514;2023-07-09T14:42:00;97910.0;;;36.4;21.8
69198;BME280;56311;50.298;8.514;2023-07-09T14:44:00;97910.0;;;36.1;22.1
69198;BME280;56311;50.298;8.514;2023-07-09T14:46:00;97910.0;;;36.4;22.2
69198;BME280;56311;50.298;8.514;2023-07-09T14:48:00;97910.0;;;36.3;22.3
69198;BME280;56311;50.298;8.514;2023-07-09T14:50:00;97910.0;;;36.3;22.3
69198;BME280;56311;50.298;8.514;2023-07-09T14:52:00;97910.0;;;36.2;22.3
69198;BME280;56311;50.298;8.514;2023-07-09T14:54:00;97900.0;;;35.9;22.4
69198;BME280;56311;50.298;8.514;2023-07-09T14:56:00;97900.0;;;36.0;22.5
69198;BME280;56311;50.298;8.514;2023-07-09T14:58:01;97900.0;;;36.0;22.6
69198;BME280;56311;50.298;8.514;2023-07-09T15:00:00;97890.0;;;35.9;23.2
69198;BME280;56311;50.298;8.514;2023-07-09T15:02:00;97890.0;;;35.8;23.3
69198;BME280;56311;50.298;8.514;2023-07-09T15:04:09;97890.0;;;35.7;23.2
69198;BME280;56311;50.298;8.514;2023-07-09T15:06:00;97890.0;;;35.6;23.5
69198;BME280;56311;50.298;8.514;2023-07-09T15:08:00;97880.0;;;35.7;23.6
69198;BME280;56311;50.298;8.514;2023-07-09T15:10:01;97880.0;;;35.4;23.3
69198;BME280;56311;50.298;8.514;2023-07-09T15:12:00;97880.0;;;35.2;23.3
69198;BME280;56311;50.298;8.514;2023-07-09T15:14:00;97880.0;;;35.1;23.7
69198;BME280;56311;50.298;8.514;2023-07-09T15:16:02;97880.0;;;35.1;23.8
69198;BME280;56311;50.298;8.514;2023-07-09T15:18:08;97880.0;;;35.0;24.1
69198;BME280;56311;50.298;8.514;2023-07-09T15:20:00;97880.0;;;34.9;24.1
69198;BME280;56311;50.298;8.514;2023-07-09T15:22:00;97880.0;;;35.0;23.8
69198;BME280;56311;50.298;8.514;2023-07-09T15:24:00;97880.0;;;34.8;24.1
69198;BME280;56311;50.298;8.514;2023-07-09T15:26:01;97880.0;;;34.8;24.0
69198;BME280;56311;50.298;8.514;2023-07-09T15:28:01;97880.0;;;34.9;24.1
69198;BME280;56311;50.298;8.514;2023-07-09T15:30:00;97880.0;;;34.8;24.1
69198;BME280;56311;50.298;8.514;2023-07-09T15:32:00;97890.0;;;34.7;24.0
69198;BME280;56311;50.298;8.514;2023-07-09T15:34:00;97880.0;;;34.7;24.2
69198;BME280;56311;50.298;8.514;2023-07-09T15:36:00;97890.0;;;34.7;24.4
69198;BME280;56311;50.298;8.514;2023-07-09T15:38:01;97890.0;;;34.7;24.9
69198;BME280;56311;50.298;8.514;2023-07-09T15:40:00;97890.0;;;34.7;25.3
69198;BME280;56311;50.298;8.514;2023-07-09T15:42:00;97900.0;;;34.6;25.9
69198;BME280;56311;50.298;8.514;2023-07-09T15:44:00;97900.0;;;34.5;26.0
69198;BME280;56311;50.298;8.514;2023-07-09T15:46:00;97890.0;;;34.2;26.2
69198;BME280;56311;50.298;8.514;2023-07-09T15:48:00;97900.0;;;34.2;26.8
69198;BME280;56311;50.298;8.514;2023-07-09T15:50:00;97900.0;;;34.1;26.9
69198;BME280;56311;50.298;8.514;2023-07-09T15:52:00;97900.0;;;34.1;26.9
69198;BME280;56311;50.298;8.514;2023-07-09T15:54:00;97900.0;;;33.9;27.0
69198;BME280;56311;50.298;8.514;2023-07-09T15:56:03;97910.0;;;33.6;27.3
69198;BME280;56311;50.298;8.514;2023-07-09T15:58:00;97910.0;;;33.5;27.3
69198;BME280;56311;50.298;8.514;2023-07-09T16:00:00;97910.0;;;33.4;27.7
69198;BME280;56311;50.298;8.514;2023-07-09T16:02:02;97910.0;;;33.3;27.8
69198;BME280;56311;50.298;8.514;2023-07-09T16:04:01;97920.0;;;33.2;28.2
69198;BME280;56311;50.298;8.514;2023-07-09T16:06:00;97920.0;;;33.1;27.9
69198;BME280;56311;50.298;8.514;2023-07-09T16:08:01;97920.0;;;33.0;28.3
69198;BME280;56311;50.298;8.514;2023-07-09T16:10:00;97920.0;;;32.9;28.1
69198;BME280;56311;50.298;8.514;2023-07-09T16:12:00;97920.0;;;32.8;28.1
69198;BME280;56311;50.298;8.514;2023-07-09T16:14:00;97920.0;;;32.7;27.4
69198;BME280;56311;50.298;8.514;2023-07-09T16:16:00;97920.0;;;32.6;27.5
69198;BME280;56311;50.298;8.514;2023-07-09T16:18:00;97930.0;;;32.5;27.8
69198;BME280;56311;50.298;8.514;2023-07-09T16:20:00;97920.0;;;32.5;27.6
69198;BME280;56311;50.298;8.514;2023-07-09T16:22:03;97930.0;;;32.5;27.8
69198;BME280;56311;50.298;8.514;2023-07-09T16:24:02;97930.0;;;32.4;27.5
69198;BME280;56311;50.298;8.514;2023-07-09T16:26:00;97930.0;;;32.4;28.0
69198;BME280;56311;50.298;8.514;2023-07-09T16:28:01;97930.0;;;32.4;28.0
69198;BME280;56311;50.298;8.514;2023-07-09T16:30:00;97920.0;;;32.4;27.7
69198;BME280;56311;50.298;8.514;2023-07-09T16:32:01;97930.0;;;32.3;28.0
69198;BME280;56311;50.298;8.514;2023-07-09T16:34:00;97930.0;;;32.2;28.4
69198;BME280;56311;50.298;8.514;2023-07-09T16:36:01;97940.0;;;32.0;29.0
69198;BME280;56311;50.298;8.514;2023-07-09T16:38:00;97970.0;;;31.9;29.4
69198;BME280;56311;50.298;8.514;2023-07-09T16:40:00;97970.0;;;31.4;32.8
69198;BME280;56311;50.298;8.514;2023-07-09T16:42:00;97970.0;;;30.9;34.7
69198;BME280;56311;50.298;8.514;2023-07-09T16:44:00;97970.0;;;30.6;35.6
69198;BME280;56311;50.298;8.514;2023-07-09T16:46:00;97980.0;;;30.3;36.6
69198;BME280;56311;50.298;8.514;2023-07-09T16:48:00;97990.0;;;29.7;38.2
69198;BME280;56311;50.298;8.514;2023-07-09T16:50:00;97980.0;;;29.3;39.5
69198;BME280;56311;50.298;8.514;2023-07-09T16:52:00;97980.0;;;29.1;40.1
69198;BME280;56311;50.298;8.514;2023-07-09T16:54:00;97980.0;;;28.6;40.9
69198;BME280;56311;50.298;8.514;2023-07-09T16:56:00;97980.0;;;28.5;41.6
69198;BME280;56311;50.298;8.514;2023-07-09T16:58:00;97980.0;;;28.3;42.0
69198;BME280;56311;50.298;8.514;2023-07-09T17:02:00;97980.0;;;28.2;42.6
69198;BME280;56311;50.298;8.514;2023-07-09T17:04:00;97990.0;;;28.1;43.0
69198;BME280;56311;50.298;8.514;2023-07-09T17:06:00;97990.0;;;27.9;43.5
69198;BME280;56311;50.298;8.514;2023-07-09T17:08:00;97980.0;;;27.9;43.9
69198;BME280;56311;50.298;8.514;2023-07-09T17:10:01;97980.0;;;27.8;44.2
69198;BME280;56311;50.298;8.514;2023-07-09T17:12:00;97980.0;;;27.8;44.4
69198;BME280;56311;50.298;8.514;2023-07-09T17:14:00;97970.0;;;27.6;44.8
69198;BME280;56311;50.298;8.514;2023-07-09T17:16:00;97970.0;;;27.6;45.3
69198;BME280;56311;50.298;8.514;2023-07-09T17:18:00;97970.0;;;27.5;45.8
69198;BME280;56311;50.298;8.514;2023-07-09T17:20:00;97970.0;;;27.4;46.2
69198;BME280;56311;50.298;8.514;2023-07-09T17:22:00;97970.0;;;27.3;46.6
69198;BME280;56311;50.298;8.514;2023-07-09T17:24:00;97960.0;;;27.3;46.8
69198;BME280;56311;50.298;8.514;2023-07-09T17:26:00;97960.0;;;27.3;46.9
69198;BME280;56311;50.298;8.514;2023-07-09T17:28:09;97960.0;;;27.4;46.9
69198;BME280;56311;50.298;8.514;2023-07-09T17:30:00;97950.0;;;27.3;47.1
69198;BME280;56311;50.298;8.514;2023-07-09T17:32:00;97940.0;;;27.1;47.7
69198;BME280;56311;50.298;8.514;2023-07-09T17:34:00;97950.0;;;27.0;48.1
69198;BME280;56311;50.298;8.514;2023-07-09T17:36:00;97960.0;;;26.8;48.6
69198;BME280;56311;50.298;8.514;2023-07-09T17:38:00;97970.0;;;26.8;48.9
69198;BME280;56311;50.298;8.514;2023-07-09T17:40:00;97970.0;;;26.8;48.9
69198;BME280;56311;50.298;8.514;2023-07-09T17:42:00;97960.0;;;26.7;49.3
69198;BME280;56311;50.298;8.514;2023-07-09T17:44:00;97970.0;;;26.6;49.6
69198;BME280;56311;50.298;8.514;2023-07-09T17:46:00;97960.0;;;26.5;50.2
69198;BME280;56311;50.298;8.514;2023-07-09T17:48:00;97950.0;;;26.5;50.3
69198;BME280;56311;50.298;8.514;2023-07-09T17:50:00;97940.0;;;26.6;50.3
69198;BME280;56311;50.298;8.514;2023-07-09T17:52:01;97940.0;;;26.6;50.5
69198;BME280;56311;50.298;8.514;2023-07-09T17:54:00;97940.0;;;26.5;50.6
69198;BME280;56311;50.298;8.514;2023-07-09T17:56:01;97940.0;;;26.4;51.1
69198;BME280;56311;50.298;8.514;2023-07-09T17:58:00;97930.0;;;26.5;51.1
69198;BME280;56311;50.298;8.514;2023-07-09T18:00:00;97920.0;;;26.6;50.6
69198;BME280;56311;50.298;8.514;2023-07-09T18:02:04;97920.0;;;26.7;50.3
69198;BME280;56311;50.298;8.514;2023-07-09T18:04:00;97910.0;;;26.8;50.2
69198;BME280;56311;50.298;8.514;2023-07-09T18:06:01;97910.0;;;26.8;50.0
69198;BME280;56311;50.298;8.514;2023-07-09T18:08:00;97900.0;;;26.7;50.2
69198;BME280;56311;50.298;8.514;2023-07-09T18:10:00;97910.0;;;26.7;50.3
69198;BME280;56311;50.298;8.514;2023-07-09T18:12:00;97910.0;;;26.6;50.1
69198;BME280;56311;50.298;8.514;2023-07-09T18:14:00;97910.0;;;26.5;50.5
69198;BME280;56311;50.298;8.514;2023-07-09T18:16:01;97900.0;;;26.5;50.4
69198;BME280;56311;50.298;8.514;2023-07-09T18:18:01;97900.0;;;26.5;50.3
69198;BME280;56311;50.298;8.514;2023-07-09T18:20:01;97890.0;;;26.4;50.4
69198;BME280;56311;50.298;8.514;2023-07-09T18:22:01;97890.0;;;26.4;50.7
69198;BME280;56311;50.298;8.514;2023-07-09T18:24:00;97890.0;;;26.4;50.7
69198;BME280;56311;50.298;8.514;2023-07-09T18:26:00;97890.0;;;26.5;50.4
69198;BME280;56311;50.298;8.514;2023-07-09T18:28:03;97880.0;;;26.6;50.5
69198;BME280;56311;50.298;8.514;2023-07-09T18:30:00;97880.0;;;26.6;49.8
69198;BME280;56311;50.298;8.514;2023-07-09T18:32:00;97880.0;;;26.6;49.5
69198;BME280;56311;50.298;8.514;2023-07-09T18:34:00;97880.0;;;26.7;50.3
69198;BME280;56311;50.298;8.514;2023-07-09T18:36:00;97880.0;;;26.7;50.0
69198;BME280;56311;50.298;8.514;2023-07-09T18:38:03;97880.0;;;26.6;50.6
69198;BME280;56311;50.298;8.514;2023-07-09T18:40:00;97880.0;;;26.6;50.1
69198;BME280;56311;50.298;8.514;2023-07-09T18:42:00;97870.0;;;26.6;50.1
69198;BME280;56311;50.298;8.514;2023-07-09T18:44:00;97870.0;;;26.6;50.1
69198;BME280;56311;50.298;8.514;2023-07-09T18:46:00;97870.0;;;26.6;50.4
69198;BME280;56311;50.298;8.514;2023-07-09T18:48:00;97870.0;;;26.6;51.3
69198;BME280;56311;50.298;8.514;2023-07-09T18:50:00;97870.0;;;26.5;51.3
69198;BME280;56311;50.298;8.514;2023-07-09T18:52:00;97870.0;;;26.5;50.9
69198;BME280;56311;50.298;8.514;2023-07-09T18:54:00;97870.0;;;26.5;50.8
69198;BME280;56311;50.298;8.514;2023-07-09T18:56:00;97870.0;;;26.5;51.3
69198;BME280;56311;50.298;8.514;2023-07-09T18:58:00;97870.0;;;26.4;51.7
69198;BME280;56311;50.298;8.514;2023-07-09T19:00:00;97870.0;;;26.3;52.1
69198;BME280;56311;50.298;8.514;2023-07-09T19:02:00;97870.0;;;26.3;52.3
69198;BME280;56311;50.298;8.514;2023-07-09T19:04:00;97870.0;;;26.3;52.4
69198;BME280;56311;50.298;8.514;2023-07-09T19:06:00;97870.0;;;26.3;52.6
69198;BME280;56311;50.298;8.514;2023-07-09T19:08:18;97860.0;;;26.3;53.9
69198;BME280;56311;50.298;8.514;2023-07-09T19:10:00;97860.0;;;26.2;53.8
69198;BME280;56311;50.298;8.514;2023-07-09T19:12:00;97860.0;;;26.2;53.9
69198;BME280;56311;50.298;8.514;2023-07-09T19:14:00;97860.0;;;26.1;53.4
69198;BME280;56311;50.298;8.514;2023-07-09T19:16:00;97860.0;;;26.1;53.5
69198;BME280;56311;50.298;8.514;2023-07-09T19:18:00;97860.0;;;26.1;53.8
69198;BME280;56311;50.298;8.514;2023-07-09T19:20:00;97870.0;;;26.1;54.4
69198;BME280;56311;50.298;8.514;2023-07-09T19:22:00;97880.0;;;26.0;54.5
69198;BME280;56311;50.298;8.514;2023-07-09T19:24:00;97870.0;;;26.0;55.2
69198;BME280;56311;50.298;8.514;2023-07-09T19:26:00;97880.0;;;25.8;55.7
69198;BME280;56311;50.298;8.514;2023-07-09T19:28:00;97880.0;;;25.7;56.4
69198;BME280;56311;50.298;8.514;2023-07-09T19:30:00;97880.0;;;25.6;56.7
69198;BME280;56311;50.298;8.514;2023-07-09T19:32:03;97880.0;;;25.5;56.8
69198;BME280;56311;50.298;8.514;2023-07-09T19:34:00;97890.0;;;25.4;57.2
69198;BME280;56311;50.298;8.514;2023-07-09T19:36:00;97890.0;;;25.4;57.2
69198;BME280;56311;50.298;8.514;2023-07-09T19:38:00;97900.0;;;25.5;57.6
69198;BME280;56311;50.298;8.514;2023-07-09T19:40:00;97890.0;;;25.5;57.8
69198;BME280;56311;50.298;8.514;2023-07-09T19:42:08;97900.0;;;25.5;57.8
69198;BME280;56311;50.298;8.514;2023-07-09T19:44:00;97900.0;;;25.4;57.7
69198;BME280;56311;50.298;8.514;2023-07-09T19:46:00;97910.0;;;25.4;57.4
69198;BME280;56311;50.298;8.514;2023-07-09T19:48:00;97910.0;;;25.5;58.1
69198;BME280;56311;50.298;8.514;2023-07-09T19:50:04;97910.0;;;25.4;59.1
69198;BME280;56311;50.298;8.514;2023-07-09T19:52:00;97910.0;;;25.4;58.9
69198;BME280;56311;50.298;8.514;2023-07-09T19:54:00;97910.0;;;25.3;59.0
69198;BME280;56311;50.298;8.514;2023-07-09T19:56:00;97920.0;;;25.2;59.2
69198;BME280;56311;50.298;8.514;2023-07-09T19:58:01;97920.0;;;25.2;59.9
69198;BME280;56311;50.298;8.514;2023-07-09T20:00:00;97920.0;;;25.2;60.0
69198;BME280;56311;50.298;8.514;2023-07-09T20:02:00;97920.0;;;25.1;60.8
69198;BME280;56311;50.298;8.514;2023-07-09T20:04:00;97920.0;;;25.1;60.8
69198;BME280;56311;50.298;8.514;2023-07-09T20:06:00;97920.0;;;25.0;60.9
69198;BME280;56311;50.298;8.514;2023-07-09T20:08:08;97920.0;;;25.0;62.3
69198;BME280;56311;50.298;8.514;2023-07-09T20:10:00;97930.0;;;24.9;62.0
69198;BME280;56311;50.298;8.514;2023-07-09T20:12:00;97930.0;;;24.9;61.6
69198;BME280;56311;50.298;8.514;2023-07-09T20:14:00;97930.0;;;24.9;61.5
69198;BME280;56311;50.298;8.514;2023-07-09T20:16:01;97930.0;;;24.9;61.6
69198;BME280;56311;50.298;8.514;2023-07-09T20:18:01;97920.0;;;24.9;62.0
69198;BME280;56311;50.298;8.514;2023-07-09T20:20:00;97920.0;;;24.9;62.9
69198;BME280;56311;50.298;8.514;2023-07-09T20:22:00;97920.0;;;24.8;63.3
69198;BME280;56311;50.298;8.514;2023-07-09T20:24:00;97920.0;;;24.8;64.0
69198;BME280;56311;50.298;8.514;2023-07-09T20:26:00;97920.0;;;24.7;64.3
69198;BME280;56311;50.298;8.514;2023-07-09T20:28:01;97920.0;;;24.6;64.9
69198;BME280;56311;50.298;8.514;2023-07-09T20:30:00;97920.0;;;24.6;64.5
69198;BME280;56311;50.298;8.514;2023-07-09T20:32:00;97920.0;;;24.5;64.9
69198;BME280;56311;50.298;8.514;2023-07-09T20:34:12;97920.0;;;24.5;64.2
69198;BME280;56311;50.298;8.514;2023-07-09T20:36:00;97920.0;;;24.5;64.0
69198;BME280;56311;50.298;8.514;2023-07-09T20:38:00;97920.0;;;24.5;63.2
69198;BME280;56311;50.298;8.514;2023-07-09T20:40:00;97910.0;;;24.5;62.3
69198;BME280;56311;50.298;8.514;2023-07-09T20:42:00;97920.0;;;24.5;62.2
69198;BME280;56311;50.298;8.514;2023-07-09T20:44:00;97920.0;;;24.5;62.4
69198;BME280;56311;50.298;8.514;2023-07-09T20:46:00;97910.0;;;24.5;62.8
69198;BME280;56311;50.298;8.514;2023-07-09T20:48:00;97920.0;;;24.5;63.7
69198;BME280;56311;50.298;8.514;2023-07-09T20:50:00;97910.0;;;24.5;64.4
69198;BME280;56311;50.298;8.514;2023-07-09T20:52:01;97910.0;;;24.4;64.7
69198;BME280;56311;50.298;8.514;2023-07-09T20:54:00;97910.0;;;24.4;64.6
69198;BME280;56311;50.298;8.514;2023-07-09T20:56:00;97920.0;;;24.3;65.3
69198;BME280;56311;50.298;8.514;2023-07-09T20:58:00;97920.0;;;24.2;65.6
69198;BME280;56311;50.298;8.514;2023-07-09T21:00:00;97920.0;;;24.1;65.5
69198;BME280;56311;50.298;8.514;2023-07-09T21:02:00;97930.0;;;24.0;66.0
69198;BME280;56311;50.298;8.514;2023-07-09T21:04:01;97930.0;;;24.0;66.3
69198;BME280;56311;50.298;8.514;2023-07-09T21:06:01;97920.0;;;23.9;66.1
69198;BME280;56311;50.298;8.514;2023-07-09T21:08:00;97930.0;;;23.9;67.2
69198;BME280;56311;50.298;8.514;2023-07-09T21:10:00;97930.0;;;23.9;67.1
69198;BME280;56311;50.298;8.514;2023-07-09T21:12:00;97930.0;;;23.8;67.7
69198;BME280;56311;50.298;8.514;2023-07-09T21:14:00;97940.0;;;23.8;68.1
69198;BME280;56311;50.298;8.514;2023-07-09T21:16:00;97930.0;;;23.7;68.0
69198;BME280;56311;50.298;8.514;2023-07-09T21:18:01;97940.0;;;23.7;68.1
69198;BME280;56311;50.298;8.514;2023-07-09T21:20:00;97930.0;;;23.7;68.1
69198;BME280;56311;50.298;8.514;2023-07-09T21:22:01;97940.0;;;23.7;69.0
69198;BME280;56311;50.298;8.514;2023-07-09T21:24:00;97940.0;;;23.7;69.7
69198;BME280;56311;50.298;8.514;2023-07-09T21:26:00;97940.0;;;23.6;70.0
69198;BME280;56311;50.298;8.514;2023-07-09T21:28:00;97950.0;;;23.6;69.3
69198;BME280;56311;50.298;8.514;2023-07-09T21:30:00;97950.0;;;23.6;69.6
69198;BME280;56311;50.298;8.514;2023-07-09T21:32:03;97940.0;;;23.5;70.8
69198;BME280;56311;50.298;8.514;2023-07-09T21:34:00;97950.0;;;23.5;70.1
69198;BME280;56311;50.298;8.514;2023-07-09T21:36:00;97940.0;;;23.6;69.8
69198;BME280;56311;50.298;8.514;2023-07-09T21:38:00;97940.0;;;23.6;70.2
69198;BME280;56311;50.298;8.514;2023-07-09T21:40:01;97940.0;;;23.6;70.4
69198;BME280;56311;50.298;8.514;2023-07-09T21:42:00;97940.0;;;23.5;70.4
69198;BME280;56311;50.298;8.514;2023-07-09T21:44:00;97950.0;;;23.6;70.8
69198;BME280;56311;50.298;8.514;2023-07-09T21:46:00;97940.0;;;23.5;70.7
69198;BME280;56311;50.298;8.514;2023-07-09T21:48:02;97940.0;;;23.5;70.6
69198;BME280;56311;50.298;8.514;2023-07-09T21:50:00;97940.0;;;23.5;70.2
69198;BME280;56311;50.298;8.514;2023-07-09T21:52:00;97950.0;;;23.5;69.8
69198;BME280;56311;50.298;8.514;2023-07-09T21:54:00;97950.0;;;23.5;67.5
69198;BME280;56311;50.298;8.514;2023-07-09T21:56:00;97960.0;;;23.5;65.5
69198;BME280;56311;50.298;8.514;2023-07-09T21:58:00;97960.0;;;23.6;64.4
69198;BME280;56311;50.298;8.514;2023-07-09T22:00:00;97970.0;;;23.7;63.7
69198;BME280;56311;50.298;8.514;2023-07-09T22:02:01;97970.0;;;23.7;63.3
69198;BME280;56311;50.298;8.514;2023-07-09T22:04:00;97960.0;;;23.8;63.1
69198;BME280;56311;50.298;8.514;2023-07-09T22:06:00;97960.0;;;23.8;63.1
69198;BME280;56311;50.298;8.514;2023-07-09T22:08:00;97970.0;;;23.8;63.2
69198;BME280;56311;50.298;8.514;2023-07-09T22:10:00;97970.0;;;23.9;62.8
69198;BME280;56311;50.298;8.514;2023-07-09T22:12:01;97980.0;;;23.8;63.0
69198;BME280;56311;50.298;8.514;2023-07-09T22:14:00;97990.0;;;23.8;62.8
69198;BME280;56311;50.298;8.514;2023-07-09T22:16:00;97990.0;;;23.8;62.9
69198;BME280;56311;50.298;8.514;2023-07-09T22:18:01;97990.0;;;23.8;63.4
69198;BME280;56311;50.298;8.514;2023-07-09T22:20:00;97990.0;;;23.9;64.5
69198;BME280;56311;50.298;8.514;2023-07-09T22:22:01;97990.0;;;23.8;64.7
69198;BME280;56311;50.298;8.514;2023-07-09T22:24:02;97990.0;;;23.8;67.1
69198;BME280;56311;50.298;8.514;2023-07-09T22:26:00;97990.0;;;23.7;70.6
69198;BME280;56311;50.298;8.514;2023-07-09T22:28:00;97990.0;;;23.6;70.1
69198;BME280;56311;50.298;8.514;2023-07-09T22:30:00;97990.0;;;23.5;72.3
69198;BME280;56311;50.298;8.514;2023-07-09T22:32:00;97980.0;;;23.3;76.9
69198;BME280;56311;50.298;8.514;2023-07-09T22:34:01;97980.0;;;23.2;75.0
69198;BME280;56311;50.298;8.514;2023-07-09T22:36:00;97980.0;;;23.0;76.8
69198;BME280;56311;50.298;8.514;2023-07-09T22:38:01;97990.0;;;23.0;77.4
69198;BME280;56311;50.298;8.514;2023-07-09T22:40:12;97990.0;;;22.9;78.0
69198;BME280;56311;50.298;8.514;2023-07-09T22:42:00;97990.0;;;22.8;78.6
69198;BME280;56311;50.298;8.514;2023-07-09T22:44:00;97990.0;;;22.8;77.1
69198;BME280;56311;50.298;8.514;2023-07-09T22:46:00;97990.0;;;22.8;78.0
69198;BME280;56311;50.298;8.514;2023-07-09T22:48:02;97990.0;;;22.8;78.3
69198;BME280;56311;50.298;8.514;2023-07-09T22:50:00;97990.0;;;22.7;78.3
69198;BME280;56311;50.298;8.514;2023-07-09T22:52:00;98000.0;;;22.6;78.0
69198;BME280;56311;50.298;8.514;2023-07-09T22:54:00;98000.0;;;22.6;77.8
69198;BME280;56311;50.298;8.514;2023-07-09T22:56:00;98000.0;;;22.6;77.9
69198;BME280;56311;50.298;8.514;2023-07-09T22:58:03;98000.0;;;22.5;77.4
69198;BME280;56311;50.298;8.514;2023-07-09T23:00:00;97990.0;;;22.4;77.3
69198;BME280;56311;50.298;8.514;2023-07-09T23:02:00;97990.0;;;22.4;77.3
69198;BME280;56311;50.298;8.514;2023-07-09T23:04:00;97980.0;;;22.4;77.2
69198;BME280;56311;50.298;8.514;2023-07-09T23:06:02;97980.0;;;22.4;77.2
69198;BME280;56311;50.298;8.514;2023-07-09T23:08:00;97990.0;;;22.2;77.8
69198;BME280;56311;50.298;8.514;2023-07-09T23:10:00;97990.0;;;22.2;78.3
69198;BME280;56311;50.298;8.514;2023-07-09T23:12:00;97990.0;;;22.1;79.0
69198;BME280;56311;50.298;8.514;2023-07-09T23:14:01;98000.0;;;22.2;79.1
69198;BME280;56311;50.298;8.514;2023-07-09T23:16:00;98010.0;;;22.2;79.4
69198;BME280;56311;50.298;8.514;2023-07-09T23:18:00;98010.0;;;22.2;79.3
69198;BME280;56311;50.298;8.514;2023-07-09T23:20:00;98010.0;;;22.2;79.7
69198;BME280;56311;50.298;8.514;2023-07-09T23:22:00;98000.0;;;22.2;79.9
69198;BME280;56311;50.298;8.514;2023-07-09T23:24:00;97990.0;;;22.2;80.0
69198;BME280;56311;50.298;8.514;2023-07-09T23:26:00;98000.0;;;22.2;80.1
69198;BME280;56311;50.298;8.514;2023-07-09T23:28:01;98010.0;;;22.3;79.7
69198;BME280;56311;50.298;8.514;2023-07-09T23:30:00;98000.0;;;22.3;79.3
69198;BME280;56311;50.298;8.514;2023-07-09T23:32:00;97990.0;;;22.3;78.8
69198;BME280;56311;50.298;8.514;2023-07-09T23:34:00;98000.0;;;22.3;78.5
69198;BME280;56311;50.298;8.514;2023-07-09T23:36:02;97990.0;;;22.4;79.2
69198;BME280;56311;50.298;8.514;2023-07-09T23:38:00;97990.0;;;22.4;79.4
69198;BME280;56311;50.298;8.514;2023-07-09T23:40:00;97990.0;;;22.3;79.0
69198;BME280;56311;50.298;8.514;2023-07-09T23:42:00;97990.0;;;22.3;79.8
69198;BME280;56311;50.298;8.514;2023-07-09T23:44:01;97990.0;;;22.3;78.8
69198;BME280;56311;50.298;8.514;2023-07-09T23:46:01;97990.0;;;22.3;78.7
69198;BME280;56311;50.298;8.514;2023-07-09T23:48:03;97990.0;;;22.3;78.6
69198;BME280;56311;50.298;8.514;2023-07-09T23:50:00;97980.0;;;22.3;78.4
69198;BME280;56311;50.298;8.514;2023-07-09T23:52:01;97980.0;;;22.4;78.3
69198;BME280;56311;50.298;8.514;2023-07-09T23:54:00;97980.0;;;22.4;77.3
69198;BME280;56311;50.298;8.514;2023-07-09T23:56:02;97980.0;;;22.5;76.4
69198;BME280;56311;50.298;8.514;2023-07-09T23:58:00;97980.0;;;22.5;74.8
